sensor_id;sensor_type;location;lat;lon;timestamp;temperature;humidity
39875;DHT22;25547;52.530;13.194;2023-05-16T00:01:01;14.30;99.90
39875;DHT22;25547;52.530;13.194;2023-05-16T00:03:30;14.30;99.90
39875;DHT22;25547;52.530;13.194;2023-05-16T00:05:56;14.30;99.90
39875;DHT22;25547;52.530;13.194;2023-05-16T00:08:24;14.20;99.90
39875;DHT22;25547;52.530;13.194;2023-05-16T00:10:51;14.30;99.90
39875;DHT22;25547;52.530;13.194;2023-05-16T00:13:19;14.20;99.90
39875;DHT22;25547;52.530;13.194;2023-05-16T00:15:53;14.20;99.90
39875;DHT22;25547;52.530;13.194;2023-05-16T00:18:24;14.10;99.90
39875;DHT22;25547;52.530;13.194;2023-05-16T00:20:50;14.10;99.90
39875;DHT22;25547;52.530;13.194;2023-05-16T00:23:16;14.20;99.90
39875;DHT22;25547;52.530;13.194;2023-05-16T00:25:42;14.10;99.90
39875;DHT22;25547;52.530;13.194;2023-05-16T00:28:12;14.10;99.90
39875;DHT22;25547;52.530;13.194;2023-05-16T00:30:38;14.00;99.90
39875;DHT22;25547;52.530;13.194;2023-05-16T00:33:04;14.00;99.90
39875;DHT22;25547;52.530;13.194;2023-05-16T00:35:30;14.00;99.90
39875;DHT22;25547;52.530;13.194;2023-05-16T00:37:56;13.90;99.90
39875;DHT22;25547;52.530;13.194;2023-05-16T00:40:24;13.90;99.90
39875;DHT22;25547;52.530;13.194;2023-05-16T00:42:52;13.80;99.90
39875;DHT22;25547;52.530;13.194;2023-05-16T00:45:18;13.90;99.90
39875;DHT22;25547;52.530;13.194;2023-05-16T00:47:43;13.80;99.90
39875;DHT22;25547;52.530;13.194;2023-05-16T00:50:09;13.80;99.90
39875;DHT22;25547;52.530;13.194;2023-05-16T00:52:37;13.70;99.90
39875;DHT22;25547;52.530;13.194;2023-05-16T00:55:04;13.70;99.90
39875;DHT22;25547;52.530;13.194;2023-05-16T00:57:30;13.60;99.90
39875;DHT22;25547;52.530;13.194;2023-05-16T00:59:55;13.50;99.90
39875;DHT22;25547;52.530;13.194;2023-05-16T01:02:21;13.40;99.90
39875;DHT22;25547;52.530;13.194;2023-05-16T01:04:47;13.30;99.90
39875;DHT22;25547;52.530;13.194;2023-05-16T01:07:16;13.30;99.90
39875;DHT22;25547;52.530;13.194;2023-05-16T01:09:44;13.20;99.90
39875;DHT22;25547;52.530;13.194;2023-05-16T01:12:13;13.10;99.90
39875;DHT22;25547;52.530;13.194;2023-05-16T01:20:32;13.10;99.90
39875;DHT22;25547;52.530;13.194;2023-05-16T01:28:29;12.70;99.90
39875;DHT22;25547;52.530;13.194;2023-05-16T01:30:57;12.70;99.90
39875;DHT22;25547;52.530;13.194;2023-05-16T01:33:23;12.60;99.90
39875;DHT22;25547;52.530;13.194;2023-05-16T01:35:59;12.60;99.90
39875;DHT22;25547;52.530;13.194;2023-05-16T01:38:45;12.60;99.90
39875;DHT22;25547;52.530;13.194;2023-05-16T01:44:09;12.50;99.90
39875;DHT22;25547;52.530;13.194;2023-05-16T01:46:39;12.60;99.90
39875;DHT22;25547;52.530;13.194;2023-05-16T01:49:24;12.40;99.90
39875;DHT22;25547;52.530;13.194;2023-05-16T01:52:18;12.30;99.90
39875;DHT22;25547;52.530;13.194;2023-05-16T01:54:47;12.30;99.90
39875;DHT22;25547;52.530;13.194;2023-05-16T01:57:19;12.20;99.90
39875;DHT22;25547;52.530;13.194;2023-05-16T01:59:51;12.20;99.90
39875;DHT22;25547;52.530;13.194;2023-05-16T02:02:18;12.10;99.90
39875;DHT22;25547;52.530;13.194;2023-05-16T02:04:43;12.20;99.90
39875;DHT22;25547;52.530;13.194;2023-05-16T02:07:09;12.20;99.90
39875;DHT22;25547;52.530;13.194;2023-05-16T02:09:35;12.20;99.90
39875;DHT22;25547;52.530;13.194;2023-05-16T02:12:00;12.30;99.90
39875;DHT22;25547;52.530;13.194;2023-05-16T02:14:26;12.20;99.90
39875;DHT22;25547;52.530;13.194;2023-05-16T02:16:52;12.40;99.90
39875;DHT22;25547;52.530;13.194;2023-05-16T02:19:18;12.30;99.90
39875;DHT22;25547;52.530;13.194;2023-05-16T02:21:43;12.30;99.90
39875;DHT22;25547;52.530;13.194;2023-05-16T02:24:11;12.30;99.90
39875;DHT22;25547;52.530;13.194;2023-05-16T02:26:42;12.30;99.90
39875;DHT22;25547;52.530;13.194;2023-05-16T02:29:08;12.20;99.90
39875;DHT22;25547;52.530;13.194;2023-05-16T02:31:34;12.20;99.90
39875;DHT22;25547;52.530;13.194;2023-05-16T02:34:00;12.20;99.90
39875;DHT22;25547;52.530;13.194;2023-05-16T02:36:26;12.30;99.90
39875;DHT22;25547;52.530;13.194;2023-05-16T02:38:52;12.30;99.90
39875;DHT22;25547;52.530;13.194;2023-05-16T02:41:20;12.30;99.90
39875;DHT22;25547;52.530;13.194;2023-05-16T02:43:47;12.20;99.90
39875;DHT22;25547;52.530;13.194;2023-05-16T02:46:25;12.20;99.90
39875;DHT22;25547;52.530;13.194;2023-05-16T02:48:52;12.20;99.90
39875;DHT22;25547;52.530;13.194;2023-05-16T02:51:23;12.20;99.90
39875;DHT22;25547;52.530;13.194;2023-05-16T02:53:49;12.20;99.90
39875;DHT22;25547;52.530;13.194;2023-05-16T02:56:15;12.20;99.90
39875;DHT22;25547;52.530;13.194;2023-05-16T02:58:42;12.20;99.90
39875;DHT22;25547;52.530;13.194;2023-05-16T03:01:08;12.10;99.90
39875;DHT22;25547;52.530;13.194;2023-05-16T03:03:38;12.20;99.90
39875;DHT22;25547;52.530;13.194;2023-05-16T03:06:04;12.20;99.90
39875;DHT22;25547;52.530;13.194;2023-05-16T03:08:30;12.10;99.90
39875;DHT22;25547;52.530;13.194;2023-05-16T03:10:57;12.10;99.90
39875;DHT22;25547;52.530;13.194;2023-05-16T03:13:23;12.00;99.90
39875;DHT22;25547;52.530;13.194;2023-05-16T03:15:48;12.10;99.90
39875;DHT22;25547;52.530;13.194;2023-05-16T03:18:14;12.00;99.90
39875;DHT22;25547;52.530;13.194;2023-05-16T03:20:40;12.00;99.90
39875;DHT22;25547;52.530;13.194;2023-05-16T03:23:06;12.10;99.90
39875;DHT22;25547;52.530;13.194;2023-05-16T03:25:38;12.00;99.90
39875;DHT22;25547;52.530;13.194;2023-05-16T03:28:06;12.10;99.90
39875;DHT22;25547;52.530;13.194;2023-05-16T03:30:33;12.00;99.90
39875;DHT22;25547;52.530;13.194;2023-05-16T03:33:02;12.00;99.90
39875;DHT22;25547;52.530;13.194;2023-05-16T03:35:31;12.00;99.90
39875;DHT22;25547;52.530;13.194;2023-05-16T03:38:00;12.00;99.90
39875;DHT22;25547;52.530;13.194;2023-05-16T03:40:25;12.00;99.90
39875;DHT22;25547;52.530;13.194;2023-05-16T03:42:51;12.00;99.90
39875;DHT22;25547;52.530;13.194;2023-05-16T03:45:17;11.90;99.90
39875;DHT22;25547;52.530;13.194;2023-05-16T03:47:42;11.90;99.90
39875;DHT22;25547;52.530;13.194;2023-05-16T03:50:08;11.90;99.90
39875;DHT22;25547;52.530;13.194;2023-05-16T03:52:34;11.80;99.90
39875;DHT22;25547;52.530;13.194;2023-05-16T03:55:00;11.80;99.90
39875;DHT22;25547;52.530;13.194;2023-05-16T03:57:31;11.80;99.90
39875;DHT22;25547;52.530;13.194;2023-05-16T03:59:57;11.80;99.90
39875;DHT22;25547;52.530;13.194;2023-05-16T04:02:25;11.70;99.90
39875;DHT22;25547;52.530;13.194;2023-05-16T04:04:50;11.60;99.90
39875;DHT22;25547;52.530;13.194;2023-05-16T04:07:18;11.70;99.90
39875;DHT22;25547;52.530;13.194;2023-05-16T04:09:44;11.60;99.90
39875;DHT22;25547;52.530;13.194;2023-05-16T04:12:09;11.60;99.90
39875;DHT22;25547;52.530;13.194;2023-05-16T04:14:35;11.60;99.90
39875;DHT22;25547;52.530;13.194;2023-05-16T04:17:01;11.70;99.90
39875;DHT22;25547;52.530;13.194;2023-05-16T04:19:26;11.70;99.90
39875;DHT22;25547;52.530;13.194;2023-05-16T04:21:52;11.70;99.90
39875;DHT22;25547;52.530;13.194;2023-05-16T04:24:17;11.70;99.90
39875;DHT22;25547;52.530;13.194;2023-05-16T04:26:46;11.60;99.90
39875;DHT22;25547;52.530;13.194;2023-05-16T04:29:11;11.50;99.90
39875;DHT22;25547;52.530;13.194;2023-05-16T04:31:38;11.50;99.90
39875;DHT22;25547;52.530;13.194;2023-05-16T04:34:06;11.50;99.90
39875;DHT22;25547;52.530;13.194;2023-05-16T04:36:34;11.50;99.90
39875;DHT22;25547;52.530;13.194;2023-05-16T04:39:00;11.50;99.90
39875;DHT22;25547;52.530;13.194;2023-05-16T04:41:28;11.50;99.90
39875;DHT22;25547;52.530;13.194;2023-05-16T04:43:54;11.50;99.90
39875;DHT22;25547;52.530;13.194;2023-05-16T04:46:19;11.40;99.90
39875;DHT22;25547;52.530;13.194;2023-05-16T04:48:47;11.40;99.90
39875;DHT22;25547;52.530;13.194;2023-05-16T04:51:13;11.30;99.90
39875;DHT22;25547;52.530;13.194;2023-05-16T04:53:39;11.40;99.90
39875;DHT22;25547;52.530;13.194;2023-05-16T04:56:07;11.40;99.90
39875;DHT22;25547;52.530;13.194;2023-05-16T04:58:32;11.40;99.90
39875;DHT22;25547;52.530;13.194;2023-05-16T05:01:00;11.40;99.90
39875;DHT22;25547;52.530;13.194;2023-05-16T05:03:26;11.40;99.90
39875;DHT22;25547;52.530;13.194;2023-05-16T05:05:52;11.40;99.90
39875;DHT22;25547;52.530;13.194;2023-05-16T05:08:20;11.40;99.90
39875;DHT22;25547;52.530;13.194;2023-05-16T05:10:46;11.40;99.90
39875;DHT22;25547;52.530;13.194;2023-05-16T05:13:11;11.50;99.90
39875;DHT22;25547;52.530;13.194;2023-05-16T05:15:37;11.50;99.90
39875;DHT22;25547;52.530;13.194;2023-05-16T05:18:03;11.50;99.90
39875;DHT22;25547;52.530;13.194;2023-05-16T05:20:28;11.50;99.90
39875;DHT22;25547;52.530;13.194;2023-05-16T05:22:54;11.50;99.90
39875;DHT22;25547;52.530;13.194;2023-05-16T05:25:22;11.50;99.90
39875;DHT22;25547;52.530;13.194;2023-05-16T05:27:50;11.50;99.90
39875;DHT22;25547;52.530;13.194;2023-05-16T05:30:16;11.50;99.90
39875;DHT22;25547;52.530;13.194;2023-05-16T05:32:41;11.60;99.90
39875;DHT22;25547;52.530;13.194;2023-05-16T05:35:07;11.60;99.90
39875;DHT22;25547;52.530;13.194;2023-05-16T05:37:35;11.70;99.90
39875;DHT22;25547;52.530;13.194;2023-05-16T05:40:01;11.70;99.90
39875;DHT22;25547;52.530;13.194;2023-05-16T05:42:27;11.70;99.90
39875;DHT22;25547;52.530;13.194;2023-05-16T05:44:55;11.70;99.90
39875;DHT22;25547;52.530;13.194;2023-05-16T05:47:23;11.60;99.90
39875;DHT22;25547;52.530;13.194;2023-05-16T05:49:51;11.70;99.90
39875;DHT22;25547;52.530;13.194;2023-05-16T05:52:17;11.80;99.90
39875;DHT22;25547;52.530;13.194;2023-05-16T05:54:45;11.70;99.90
39875;DHT22;25547;52.530;13.194;2023-05-16T05:57:11;11.80;99.90
39875;DHT22;25547;52.530;13.194;2023-05-16T05:59:39;11.80;99.90
39875;DHT22;25547;52.530;13.194;2023-05-16T06:02:05;11.80;99.90
39875;DHT22;25547;52.530;13.194;2023-05-16T06:04:34;11.70;99.90
39875;DHT22;25547;52.530;13.194;2023-05-16T06:07:03;11.70;99.90
39875;DHT22;25547;52.530;13.194;2023-05-16T06:09:29;11.80;99.90
39875;DHT22;25547;52.530;13.194;2023-05-16T06:11:55;11.80;99.90
39875;DHT22;25547;52.530;13.194;2023-05-16T06:14:24;11.80;99.90
39875;DHT22;25547;52.530;13.194;2023-05-16T06:16:52;11.70;99.90
39875;DHT22;25547;52.530;13.194;2023-05-16T06:19:18;11.70;99.90
39875;DHT22;25547;52.530;13.194;2023-05-16T06:21:46;11.80;99.90
39875;DHT22;25547;52.530;13.194;2023-05-16T06:24:11;11.80;99.90
39875;DHT22;25547;52.530;13.194;2023-05-16T06:26:37;11.70;99.90
39875;DHT22;25547;52.530;13.194;2023-05-16T06:29:05;11.80;99.90
39875;DHT22;25547;52.530;13.194;2023-05-16T06:31:30;11.80;99.90
39875;DHT22;25547;52.530;13.194;2023-05-16T06:33:56;11.80;99.90
39875;DHT22;25547;52.530;13.194;2023-05-16T06:36:24;11.80;99.90
39875;DHT22;25547;52.530;13.194;2023-05-16T06:38:50;11.80;99.90
39875;DHT22;25547;52.530;13.194;2023-05-16T06:41:18;11.90;99.90
39875;DHT22;25547;52.530;13.194;2023-05-16T06:43:48;11.90;99.90
39875;DHT22;25547;52.530;13.194;2023-05-16T06:46:14;11.80;99.90
39875;DHT22;25547;52.530;13.194;2023-05-16T06:48:40;11.60;99.90
39875;DHT22;25547;52.530;13.194;2023-05-16T06:51:05;11.80;99.90
39875;DHT22;25547;52.530;13.194;2023-05-16T06:53:34;11.70;99.90
39875;DHT22;25547;52.530;13.194;2023-05-16T06:55:59;11.80;99.90
39875;DHT22;25547;52.530;13.194;2023-05-16T06:58:28;11.80;99.90
39875;DHT22;25547;52.530;13.194;2023-05-16T07:00:55;11.90;99.90
39875;DHT22;25547;52.530;13.194;2023-05-16T07:03:21;11.90;99.90
39875;DHT22;25547;52.530;13.194;2023-05-16T07:05:47;11.80;99.90
39875;DHT22;25547;52.530;13.194;2023-05-16T07:08:17;11.90;99.90
39875;DHT22;25547;52.530;13.194;2023-05-16T07:10:45;11.80;99.90
39875;DHT22;25547;52.530;13.194;2023-05-16T07:13:13;11.90;99.90
39875;DHT22;25547;52.530;13.194;2023-05-16T07:15:39;12.00;99.90
39875;DHT22;25547;52.530;13.194;2023-05-16T07:18:05;12.10;99.90
39875;DHT22;25547;52.530;13.194;2023-05-16T07:20:30;12.10;99.90
39875;DHT22;25547;52.530;13.194;2023-05-16T07:22:58;12.30;99.90
39875;DHT22;25547;52.530;13.194;2023-05-16T07:25:24;12.40;99.90
39875;DHT22;25547;52.530;13.194;2023-05-16T07:27:50;12.20;99.90
39875;DHT22;25547;52.530;13.194;2023-05-16T07:30:16;12.30;99.90
39875;DHT22;25547;52.530;13.194;2023-05-16T07:32:42;12.20;99.90
39875;DHT22;25547;52.530;13.194;2023-05-16T07:35:08;12.20;99.90
39875;DHT22;25547;52.530;13.194;2023-05-16T07:37:37;12.10;99.90
39875;DHT22;25547;52.530;13.194;2023-05-16T07:40:06;12.00;99.90
39875;DHT22;25547;52.530;13.194;2023-05-16T07:42:32;12.00;99.90
39875;DHT22;25547;52.530;13.194;2023-05-16T07:44:58;12.00;99.90
39875;DHT22;25547;52.530;13.194;2023-05-16T07:47:23;12.00;99.90
39875;DHT22;25547;52.530;13.194;2023-05-16T07:49:51;12.10;99.90
39875;DHT22;25547;52.530;13.194;2023-05-16T07:52:22;12.10;99.90
39875;DHT22;25547;52.530;13.194;2023-05-16T07:54:50;12.20;99.90
39875;DHT22;25547;52.530;13.194;2023-05-16T07:57:16;12.20;99.90
39875;DHT22;25547;52.530;13.194;2023-05-16T07:59:42;12.10;99.90
39875;DHT22;25547;52.530;13.194;2023-05-16T08:02:09;12.10;99.90
39875;DHT22;25547;52.530;13.194;2023-05-16T08:04:35;12.10;99.90
39875;DHT22;25547;52.530;13.194;2023-05-16T08:07:01;12.00;99.90
39875;DHT22;25547;52.530;13.194;2023-05-16T08:09:26;12.10;99.90
39875;DHT22;25547;52.530;13.194;2023-05-16T08:11:54;12.00;99.90
39875;DHT22;25547;52.530;13.194;2023-05-16T08:14:20;12.10;99.90
39875;DHT22;25547;52.530;13.194;2023-05-16T08:16:46;12.10;99.90
39875;DHT22;25547;52.530;13.194;2023-05-16T08:19:12;12.10;99.90
39875;DHT22;25547;52.530;13.194;2023-05-16T08:21:38;12.20;99.90
39875;DHT22;25547;52.530;13.194;2023-05-16T08:24:03;12.20;99.90
39875;DHT22;25547;52.530;13.194;2023-05-16T08:26:32;12.20;99.90
39875;DHT22;25547;52.530;13.194;2023-05-16T08:28:57;12.10;99.90
39875;DHT22;25547;52.530;13.194;2023-05-16T08:31:23;12.10;99.90
39875;DHT22;25547;52.530;13.194;2023-05-16T08:33:49;12.10;99.90
39875;DHT22;25547;52.530;13.194;2023-05-16T08:36:17;12.10;99.90
39875;DHT22;25547;52.530;13.194;2023-05-16T08:38:44;12.10;99.90
39875;DHT22;25547;52.530;13.194;2023-05-16T08:41:12;12.20;99.90
39875;DHT22;25547;52.530;13.194;2023-05-16T08:43:38;12.20;99.90
39875;DHT22;25547;52.530;13.194;2023-05-16T08:46:06;12.30;99.90
39875;DHT22;25547;52.530;13.194;2023-05-16T08:48:35;12.40;99.90
39875;DHT22;25547;52.530;13.194;2023-05-16T08:51:05;12.40;99.90
39875;DHT22;25547;52.530;13.194;2023-05-16T08:53:43;12.50;99.90
39875;DHT22;25547;52.530;13.194;2023-05-16T08:56:11;12.60;99.90
39875;DHT22;25547;52.530;13.194;2023-05-16T08:58:39;12.60;99.90
39875;DHT22;25547;52.530;13.194;2023-05-16T09:01:07;12.50;99.90
39875;DHT22;25547;52.530;13.194;2023-05-16T09:03:37;12.50;99.90
39875;DHT22;25547;52.530;13.194;2023-05-16T09:06:06;12.40;99.90
39875;DHT22;25547;52.530;13.194;2023-05-16T09:08:32;12.50;99.90
39875;DHT22;25547;52.530;13.194;2023-05-16T09:11:01;12.50;99.90
39875;DHT22;25547;52.530;13.194;2023-05-16T09:13:26;12.40;99.90
39875;DHT22;25547;52.530;13.194;2023-05-16T09:16:21;12.50;99.90
39875;DHT22;25547;52.530;13.194;2023-05-16T09:18:58;12.50;99.90
39875;DHT22;25547;52.530;13.194;2023-05-16T09:21:33;12.50;99.90
39875;DHT22;25547;52.530;13.194;2023-05-16T09:24:06;12.60;99.90
39875;DHT22;25547;52.530;13.194;2023-05-16T09:26:33;12.60;99.90
39875;DHT22;25547;52.530;13.194;2023-05-16T09:28:59;12.70;99.90
39875;DHT22;25547;52.530;13.194;2023-05-16T09:31:27;12.70;99.90
39875;DHT22;25547;52.530;13.194;2023-05-16T09:34:00;12.50;99.90
39875;DHT22;25547;52.530;13.194;2023-05-16T09:36:30;12.50;99.90
39875;DHT22;25547;52.530;13.194;2023-05-16T09:39:01;12.50;99.90
39875;DHT22;25547;52.530;13.194;2023-05-16T09:41:27;12.50;99.90
39875;DHT22;25547;52.530;13.194;2023-05-16T09:43:54;12.60;99.90
39875;DHT22;25547;52.530;13.194;2023-05-16T09:46:24;12.60;99.90
39875;DHT22;25547;52.530;13.194;2023-05-16T09:48:50;12.60;99.90
39875;DHT22;25547;52.530;13.194;2023-05-16T09:51:20;12.50;99.90
39875;DHT22;25547;52.530;13.194;2023-05-16T09:53:51;12.60;99.90
39875;DHT22;25547;52.530;13.194;2023-05-16T09:56:16;12.60;99.90
39875;DHT22;25547;52.530;13.194;2023-05-16T09:58:45;12.60;99.90
39875;DHT22;25547;52.530;13.194;2023-05-16T10:01:13;12.60;99.90
39875;DHT22;25547;52.530;13.194;2023-05-16T10:03:42;12.50;99.90
39875;DHT22;25547;52.530;13.194;2023-05-16T10:06:08;12.40;99.90
39875;DHT22;25547;52.530;13.194;2023-05-16T10:08:36;12.50;99.90
39875;DHT22;25547;52.530;13.194;2023-05-16T10:11:03;12.60;99.90
39875;DHT22;25547;52.530;13.194;2023-05-16T10:13:31;12.90;99.90
39875;DHT22;25547;52.530;13.194;2023-05-16T10:16:09;13.20;99.90
39875;DHT22;25547;52.530;13.194;2023-05-16T10:18:41;13.40;99.90
39875;DHT22;25547;52.530;13.194;2023-05-16T10:21:12;13.40;99.90
39875;DHT22;25547;52.530;13.194;2023-05-16T10:23:41;13.20;99.90
39875;DHT22;25547;52.530;13.194;2023-05-16T10:26:10;13.00;99.90
39875;DHT22;25547;52.530;13.194;2023-05-16T10:28:41;12.90;99.90
39875;DHT22;25547;52.530;13.194;2023-05-16T10:31:08;12.90;99.90
39875;DHT22;25547;52.530;13.194;2023-05-16T10:33:38;12.80;99.90
39875;DHT22;25547;52.530;13.194;2023-05-16T10:36:04;12.70;99.90
39875;DHT22;25547;52.530;13.194;2023-05-16T10:38:31;12.60;99.90
39875;DHT22;25547;52.530;13.194;2023-05-16T10:41:00;12.70;99.90
39875;DHT22;25547;52.530;13.194;2023-05-16T10:43:28;12.70;99.90
39875;DHT22;25547;52.530;13.194;2023-05-16T10:46:09;12.90;99.90
39875;DHT22;25547;52.530;13.194;2023-05-16T10:48:39;13.10;99.90
39875;DHT22;25547;52.530;13.194;2023-05-16T10:53:54;13.30;99.90
39875;DHT22;25547;52.530;13.194;2023-05-16T10:56:24;13.20;99.40
39875;DHT22;25547;52.530;13.194;2023-05-16T10:58:54;13.30;99.50
39875;DHT22;25547;52.530;13.194;2023-05-16T11:01:24;13.40;99.70
39875;DHT22;25547;52.530;13.194;2023-05-16T11:06:56;13.30;98.40
39875;DHT22;25547;52.530;13.194;2023-05-16T11:09:24;13.40;98.70
39875;DHT22;25547;52.530;13.194;2023-05-16T11:11:56;13.40;99.00
39875;DHT22;25547;52.530;13.194;2023-05-16T11:14:46;13.40;98.90
39875;DHT22;25547;52.530;13.194;2023-05-16T11:17:21;13.20;98.30
39875;DHT22;25547;52.530;13.194;2023-05-16T11:19:50;13.30;98.50
39875;DHT22;25547;52.530;13.194;2023-05-16T11:25:07;13.50;97.50
39875;DHT22;25547;52.530;13.194;2023-05-16T11:27:34;13.60;97.40
39875;DHT22;25547;52.530;13.194;2023-05-16T11:32:35;13.60;96.40
39875;DHT22;25547;52.530;13.194;2023-05-16T11:35:02;13.90;96.10
39875;DHT22;25547;52.530;13.194;2023-05-16T11:37:28;14.10;96.80
39875;DHT22;25547;52.530;13.194;2023-05-16T11:39:58;14.20;95.00
39875;DHT22;25547;52.530;13.194;2023-05-16T11:42:27;14.30;93.70
39875;DHT22;25547;52.530;13.194;2023-05-16T11:45:15;14.50;93.60
39875;DHT22;25547;52.530;13.194;2023-05-16T11:47:43;14.60;92.80
39875;DHT22;25547;52.530;13.194;2023-05-16T11:50:12;14.70;92.70
39875;DHT22;25547;52.530;13.194;2023-05-16T11:52:39;14.60;92.20
39875;DHT22;25547;52.530;13.194;2023-05-16T11:55:08;14.50;91.60
39875;DHT22;25547;52.530;13.194;2023-05-16T11:57:39;14.40;92.30
39875;DHT22;25547;52.530;13.194;2023-05-16T12:00:16;14.50;92.60
39875;DHT22;25547;52.530;13.194;2023-05-16T12:02:46;14.60;92.00
39875;DHT22;25547;52.530;13.194;2023-05-16T12:05:15;14.70;92.00
39875;DHT22;25547;52.530;13.194;2023-05-16T12:07:45;15.00;91.60
39875;DHT22;25547;52.530;13.194;2023-05-16T12:10:13;15.00;91.50
39875;DHT22;25547;52.530;13.194;2023-05-16T12:12:43;14.90;91.60
39875;DHT22;25547;52.530;13.194;2023-05-16T12:15:10;14.80;91.10
39875;DHT22;25547;52.530;13.194;2023-05-16T12:17:40;14.80;90.70
39875;DHT22;25547;52.530;13.194;2023-05-16T12:20:08;14.60;90.90
39875;DHT22;25547;52.530;13.194;2023-05-16T12:22:42;14.70;91.20
39875;DHT22;25547;52.530;13.194;2023-05-16T12:25:46;14.80;90.60
39875;DHT22;25547;52.530;13.194;2023-05-16T12:28:13;14.90;89.30
39875;DHT22;25547;52.530;13.194;2023-05-16T12:30:41;15.00;88.90
39875;DHT22;25547;52.530;13.194;2023-05-16T12:33:13;15.10;88.60
39875;DHT22;25547;52.530;13.194;2023-05-16T12:35:41;15.40;88.10
39875;DHT22;25547;52.530;13.194;2023-05-16T12:38:09;15.60;86.40
39875;DHT22;25547;52.530;13.194;2023-05-16T12:40:39;15.30;84.60
39875;DHT22;25547;52.530;13.194;2023-05-16T12:43:14;15.40;86.30
39875;DHT22;25547;52.530;13.194;2023-05-16T12:45:40;15.30;84.90
39875;DHT22;25547;52.530;13.194;2023-05-16T12:48:13;15.30;83.10
39875;DHT22;25547;52.530;13.194;2023-05-16T12:50:40;15.30;82.40
39875;DHT22;25547;52.530;13.194;2023-05-16T12:53:11;15.30;82.50
39875;DHT22;25547;52.530;13.194;2023-05-16T12:55:37;15.30;83.60
39875;DHT22;25547;52.530;13.194;2023-05-16T12:58:05;15.10;83.60
39875;DHT22;25547;52.530;13.194;2023-05-16T13:00:34;14.90;82.90
39875;DHT22;25547;52.530;13.194;2023-05-16T13:03:04;14.80;83.20
39875;DHT22;25547;52.530;13.194;2023-05-16T13:05:30;14.80;83.40
39875;DHT22;25547;52.530;13.194;2023-05-16T13:07:56;14.80;83.00
39875;DHT22;25547;52.530;13.194;2023-05-16T13:10:22;14.90;80.50
39875;DHT22;25547;52.530;13.194;2023-05-16T13:12:50;14.90;80.40
39875;DHT22;25547;52.530;13.194;2023-05-16T13:15:15;15.10;78.30
39875;DHT22;25547;52.530;13.194;2023-05-16T13:17:43;15.20;78.20
39875;DHT22;25547;52.530;13.194;2023-05-16T13:20:09;15.10;77.10
39875;DHT22;25547;52.530;13.194;2023-05-16T13:22:39;15.10;79.20
39875;DHT22;25547;52.530;13.194;2023-05-16T13:25:05;15.10;78.10
39875;DHT22;25547;52.530;13.194;2023-05-16T13:27:32;15.00;78.00
39875;DHT22;25547;52.530;13.194;2023-05-16T13:30:01;15.00;77.80
39875;DHT22;25547;52.530;13.194;2023-05-16T13:32:28;15.00;77.90
39875;DHT22;25547;52.530;13.194;2023-05-16T13:34:54;15.00;77.80
39875;DHT22;25547;52.530;13.194;2023-05-16T13:37:21;15.10;77.60
39875;DHT22;25547;52.530;13.194;2023-05-16T13:39:50;15.20;76.70
39875;DHT22;25547;52.530;13.194;2023-05-16T13:42:18;15.50;75.20
39875;DHT22;25547;52.530;13.194;2023-05-16T13:44:47;15.60;75.30
39875;DHT22;25547;52.530;13.194;2023-05-16T13:47:12;15.70;74.90
39875;DHT22;25547;52.530;13.194;2023-05-16T13:49:38;15.80;71.00
39875;DHT22;25547;52.530;13.194;2023-05-16T13:52:04;15.70;69.90
39875;DHT22;25547;52.530;13.194;2023-05-16T13:54:30;15.60;70.40
39875;DHT22;25547;52.530;13.194;2023-05-16T13:56:58;15.40;70.00
39875;DHT22;25547;52.530;13.194;2023-05-16T13:59:24;15.30;72.00
39875;DHT22;25547;52.530;13.194;2023-05-16T14:01:50;15.50;71.20
39875;DHT22;25547;52.530;13.194;2023-05-16T14:04:15;15.60;70.10
39875;DHT22;25547;52.530;13.194;2023-05-16T14:06:41;15.60;69.50
39875;DHT22;25547;52.530;13.194;2023-05-16T14:09:07;15.70;70.40
39875;DHT22;25547;52.530;13.194;2023-05-16T14:11:35;15.80;69.40
39875;DHT22;25547;52.530;13.194;2023-05-16T14:14:00;15.70;70.90
39875;DHT22;25547;52.530;13.194;2023-05-16T14:16:26;15.70;70.30
39875;DHT22;25547;52.530;13.194;2023-05-16T14:18:52;15.80;68.50
39875;DHT22;25547;52.530;13.194;2023-05-16T14:21:20;15.90;69.60
39875;DHT22;25547;52.530;13.194;2023-05-16T14:23:45;15.70;66.80
39875;DHT22;25547;52.530;13.194;2023-05-16T14:26:11;15.60;67.20
39875;DHT22;25547;52.530;13.194;2023-05-16T14:28:36;15.50;66.20
39875;DHT22;25547;52.530;13.194;2023-05-16T14:31:02;15.50;66.80
39875;DHT22;25547;52.530;13.194;2023-05-16T14:33:28;15.60;64.00
39875;DHT22;25547;52.530;13.194;2023-05-16T14:35:56;15.80;66.00
39875;DHT22;25547;52.530;13.194;2023-05-16T14:38:21;15.80;64.10
39875;DHT22;25547;52.530;13.194;2023-05-16T14:40:47;15.90;63.30
39875;DHT22;25547;52.530;13.194;2023-05-16T14:43:15;16.10;64.30
39875;DHT22;25547;52.530;13.194;2023-05-16T14:45:41;16.30;66.20
39875;DHT22;25547;52.530;13.194;2023-05-16T14:48:09;16.40;62.20
39875;DHT22;25547;52.530;13.194;2023-05-16T14:50:37;16.40;63.00
39875;DHT22;25547;52.530;13.194;2023-05-16T14:53:07;16.40;61.70
39875;DHT22;25547;52.530;13.194;2023-05-16T14:55:33;16.10;61.30
39875;DHT22;25547;52.530;13.194;2023-05-16T14:57:59;16.00;63.00
39875;DHT22;25547;52.530;13.194;2023-05-16T15:00:25;15.90;62.90
39875;DHT22;25547;52.530;13.194;2023-05-16T15:02:53;16.00;63.20
39875;DHT22;25547;52.530;13.194;2023-05-16T15:05:23;15.90;59.50
39875;DHT22;25547;52.530;13.194;2023-05-16T15:07:52;16.00;60.00
39875;DHT22;25547;52.530;13.194;2023-05-16T15:10:21;16.10;59.70
39875;DHT22;25547;52.530;13.194;2023-05-16T15:12:46;16.10;59.60
39875;DHT22;25547;52.530;13.194;2023-05-16T15:15:12;16.10;60.00
39875;DHT22;25547;52.530;13.194;2023-05-16T15:17:39;16.00;58.40
39875;DHT22;25547;52.530;13.194;2023-05-16T15:20:07;15.80;57.90
39875;DHT22;25547;52.530;13.194;2023-05-16T15:22:37;15.80;58.50
39875;DHT22;25547;52.530;13.194;2023-05-16T15:25:05;15.90;57.70
39875;DHT22;25547;52.530;13.194;2023-05-16T15:27:32;15.90;56.70
39875;DHT22;25547;52.530;13.194;2023-05-16T15:30:00;15.80;57.10
39875;DHT22;25547;52.530;13.194;2023-05-16T15:32:27;15.80;57.40
39875;DHT22;25547;52.530;13.194;2023-05-16T15:34:53;15.80;57.90
39875;DHT22;25547;52.530;13.194;2023-05-16T15:37:19;15.80;58.40
39875;DHT22;25547;52.530;13.194;2023-05-16T15:39:45;15.90;57.30
39875;DHT22;25547;52.530;13.194;2023-05-16T15:42:11;16.00;58.50
39875;DHT22;25547;52.530;13.194;2023-05-16T15:44:39;16.20;56.90